Time;durP1;ratioP1;P1;durP2;ratioP2;P2;SDS_P1;SDS_P2;PMS_P1;PMS_P2;Temp;Humidity;BMP_temperature;BMP_pressure;BME280_temperature;BME280_humidity;BME280_pressure;Samples;Min_cycle;Max_cycle;Signal;HPM_P1;HPM_P2
2022/06/14 00:01:30;;;;;;;3.83;2.53;;;;;;;15.86;54.55;97236.03;6269424;23;20024;-78
2022/06/14 00:03:58;;;;;;;7.80;3.15;;;;;;;15.84;54.43;97238.84;6252367;22;20024;-78
2022/06/14 00:06:30;;;;;;;10.13;3.30;;;;;;;15.81;54.94;97235.81;6246604;23;20028;-78
2022/06/14 00:08:58;;;;;;;5.22;3.15;;;;;;;15.75;54.73;97231.34;6246421;22;20427;-78
2022/06/14 00:11:28;;;;;;;6.65;3.70;;;;;;;15.71;54.94;97236.19;6245350;22;20059;-78
2022/06/14 00:13:57;;;;;;;6.95;3.10;;;;;;;15.70;54.98;97244.22;6245765;22;20044;-78
2022/06/14 00:16:27;;;;;;;4.22;2.60;;;;;;;15.71;55.40;97240.63;6245341;23;20526;-78
2022/06/14 00:18:55;;;;;;;6.90;3.10;;;;;;;15.74;54.96;97248.13;6245661;22;20032;-78
2022/06/14 00:21:23;;;;;;;7.10;3.33;;;;;;;15.71;55.04;97238.81;6244979;23;20030;-78
2022/06/14 00:23:52;;;;;;;6.60;2.80;;;;;;;15.68;55.09;97233.09;6245834;22;20024;-78
2022/06/14 00:26:20;;;;;;;6.35;3.00;;;;;;;15.64;55.09;97233.50;6245704;23;20020;-78
2022/06/14 00:28:47;;;;;;;7.82;3.00;;;;;;;15.65;55.27;97235.16;6245283;22;20020;-78
2022/06/14 00:31:17;;;;;;;4.55;3.03;;;;;;;15.63;55.20;97231.91;6244881;23;20523;-78
2022/06/14 00:33:46;;;;;;;7.18;3.17;;;;;;;15.60;55.32;97236.72;6245739;22;20021;-77
2022/06/14 00:36:22;;;;;;;5.75;3.13;;;;;;;15.52;55.82;97234.28;6245702;23;20167;-78
2022/06/14 00:38:52;;;;;;;6.78;3.03;;;;;;;15.46;55.77;97230.63;6246125;23;20021;-78
2022/06/14 00:41:28;;;;;;;6.45;4.30;;;;;;;15.40;56.23;97236.66;6245485;23;20418;-77
2022/06/14 00:43:56;;;;;;;4.70;3.60;;;;;;;15.36;56.09;97230.19;6245124;22;20398;-78
2022/06/14 00:46:29;;;;;;;8.05;3.53;;;;;;;15.32;56.68;97234.22;6246031;23;20031;-77
2022/06/14 00:49:04;;;;;;;8.05;4.47;;;;;;;15.27;57.13;97231.38;6245436;23;20016;-78
2022/06/14 00:51:37;;;;;;;6.68;3.67;;;;;;;15.22;57.11;97230.13;6245214;23;20074;-78
2022/06/14 00:54:14;;;;;;;7.40;4.13;;;;;;;15.23;57.58;97231.72;6245434;22;20095;-78
2022/06/14 00:56:49;;;;;;;7.35;3.63;;;;;;;15.21;57.67;97231.13;6245629;23;20016;-78
2022/06/14 00:59:23;;;;;;;7.63;4.13;;;;;;;15.18;57.14;97234.16;6245498;23;20460;-77
2022/06/14 01:01:53;;;;;;;5.43;3.33;;;;;;;15.14;57.61;97242.63;6244303;23;20531;-78
2022/06/14 01:04:25;;;;;;;6.68;3.45;;;;;;;15.11;57.65;97241.19;6245273;22;20059;-77
2022/06/14 01:06:59;;;;;;;4.75;3.95;;;;;;;15.08;57.89;97238.13;6245323;23;20411;-78
2022/06/14 01:09:34;;;;;;;5.63;3.72;;;;;;;15.04;58.12;97245.59;6245521;23;20031;-78
2022/06/14 01:12:06;;;;;;;4.55;3.55;;;;;;;15.02;58.25;97243.16;6244576;23;20535;-78
2022/06/14 01:14:42;;;;;;;7.82;3.38;;;;;;;14.99;57.93;97238.28;6245651;23;20115;-78
2022/06/14 01:17:13;;;;;;;6.22;3.97;;;;;;;14.97;57.79;97244.75;6245352;23;20074;-77
2022/06/14 01:19:41;;;;;;;7.18;3.85;;;;;;;14.93;58.03;97246.13;6245193;23;20020;-78
2022/06/14 01:22:29;;;;;;;6.90;3.85;;;;;;;14.89;58.21;97242.25;6244869;22;20095;-77
2022/06/14 01:24:57;;;;;;;5.60;3.42;;;;;;;14.81;58.00;97249.31;6245188;23;20023;-78
2022/06/14 01:27:27;;;;;;;8.55;4.05;;;;;;;14.77;58.18;97242.00;6245316;23;20021;-78
2022/06/14 01:30:14;;;;;;;7.18;3.78;;;;;;;14.75;58.12;97238.75;6244851;23;20483;-78
2022/06/14 01:32:45;;;;;;;6.35;3.78;;;;;;;14.70;58.06;97236.72;6244636;22;20104;-78
2022/06/14 01:35:17;;;;;;;6.40;3.25;;;;;;;14.68;58.12;97235.28;6244817;23;20055;-78
2022/06/14 01:37:50;;;;;;;5.35;3.92;;;;;;;14.63;58.19;97236.66;6245106;22;20035;-78
2022/06/14 01:40:18;;;;;;;;;;;;;;;14.63;57.97;97230.63;6245247;23;20016;-78
2022/06/14 01:43:03;;;;;;;7.57;3.45;;;;;;;14.56;57.94;97234.97;6244529;22;19919;-78
2022/06/14 01:45:40;;;;;;;5.07;3.88;;;;;;;14.48;58.48;97228.03;6244544;23;20491;-77
2022/06/14 01:48:17;;;;;;;7.05;3.88;;;;;;;14.46;58.67;97224.81;6244517;23;20396;-78
2022/06/14 01:53:49;;;;;;;6.45;4.10;;;;;;;14.37;59.04;97231.19;6259796;22;20031;-78
2022/06/14 01:56:23;;;;;;;8.05;4.05;;;;;;;14.34;58.99;97221.91;6271965;22;20030;-78
2022/06/14 01:59:04;;;;;;;7.05;3.80;;;;;;;14.33;59.19;97225.50;6269064;22;20035;-78
2022/06/14 02:01:37;;;;;;;4.93;3.67;;;;;;;14.36;59.14;97229.56;6246202;23;20099;-78
2022/06/14 02:07:11;;;;;;;5.65;3.90;;;;;;;14.35;58.69;97223.50;6245058;23;20094;-78
2022/06/14 02:09:52;;;;;;;9.05;4.95;;;;;;;14.32;59.00;97236.19;6245214;23;20100;-78
2022/06/14 02:12:27;;;;;;;8.18;4.75;;;;;;;14.26;59.31;97232.53;6244796;22;20066;-77
2022/06/14 02:15:03;;;;;;;6.03;3.92;;;;;;;14.22;59.23;97226.03;6261695;23;20051;-78
2022/06/14 02:17:35;;;;;;;6.53;3.70;;;;;;;14.20;59.41;97230.66;6270747;23;20020;-78
2022/06/14 02:20:08;;;;;;;10.82;4.72;;;;;;;14.17;59.20;97231.03;6260284;23;20031;-78
2022/06/14 02:22:37;;;;;;;;;;;;;;;14.17;59.09;97228.41;6248097;22;20100;-77
2022/06/14 02:25:11;;;;;;;9.32;4.45;;;;;;;14.11;59.33;97229.97;6247260;23;20003;-77
2022/06/14 02:27:43;;;;;;;4.07;3.60;;;;;;;14.05;59.50;97222.03;6246761;23;20402;-78
2022/06/14 02:30:18;;;;;;;7.65;4.15;;;;;;;14.00;59.52;97227.84;6246664;22;20441;-77
2022/06/14 02:32:49;;;;;;;7.78;3.80;;;;;;;13.96;59.42;97229.22;6246853;22;20024;-78
2022/06/14 02:35:23;;;;;;;5.93;4.38;;;;;;;13.91;59.70;97226.38;6246771;23;20083;-78
2022/06/14 02:37:54;;;;;;;6.65;4.38;;;;;;;13.89;59.72;97234.41;6247263;23;20086;-77
2022/06/14 02:40:28;;;;;;;5.53;4.45;;;;;;;13.88;59.70;97230.16;6247011;23;20419;-77
2022/06/14 02:43:01;;;;;;;7.38;4.97;;;;;;;13.90;59.86;97225.53;6246102;22;20076;-77
2022/06/14 02:45:35;;;;;;;7.65;4.18;;;;;;;13.91;59.67;97221.13;6262350;23;20052;-77
2022/06/14 02:48:07;;;;;;;6.50;4.25;;;;;;;13.87;59.90;97220.66;6261285;23;20020;-80
2022/06/14 02:50:40;;;;;;;6.95;4.05;;;;;;;13.81;59.85;97216.16;6259252;23;20020;-78
2022/06/14 02:53:15;;;;;;;5.28;4.60;;;;;;;13.76;60.23;97218.53;6261358;22;20078;-78
2022/06/14 02:55:49;;;;;;;6.63;4.60;;;;;;;13.71;60.47;97221.72;6261976;23;20027;-78
2022/06/14 02:58:23;;;;;;;9.13;5.15;;;;;;;13.69;60.56;97217.69;6265392;23;20031;-79
2022/06/14 03:00:57;;;;;;;8.65;4.63;;;;;;;13.67;60.57;97223.09;6265629;23;20035;-82
2022/06/14 03:03:32;;;;;;;6.80;4.30;;;;;;;13.65;60.46;97226.91;6266456;22;20020;-81
2022/06/14 03:06:06;;;;;;;4.90;4.40;;;;;;;13.65;60.47;97222.47;6264434;23;20024;-78
2022/06/14 03:08:42;;;;;;;7.03;4.90;;;;;;;13.63;60.56;97223.66;6263958;23;20032;-79
2022/06/14 03:11:21;;;;;;;7.38;4.78;;;;;;;13.64;60.68;97220.03;6264178;23;20027;-79
2022/06/14 03:13:57;;;;;;;8.82;4.63;;;;;;;13.62;60.53;97222.81;6263117;22;20019;-78
2022/06/14 03:16:32;;;;;;;8.45;4.95;;;;;;;13.58;60.46;97217.16;6262215;23;20024;-78
2022/06/14 03:19:04;;;;;;;7.35;4.72;;;;;;;13.55;60.66;97224.56;6262544;23;20529;-79
2022/06/14 03:21:38;;;;;;;7.47;4.95;;;;;;;13.52;60.80;97223.13;6260521;23;20047;-78
2022/06/14 03:24:12;;;;;;;7.57;4.70;;;;;;;13.51;60.82;97218.06;6259331;22;20058;-77
2022/06/14 03:26:51;;;;;;;7.88;5.30;;;;;;;13.46;60.96;97213.38;6259264;23;20054;-78
2022/06/14 03:29:23;;;;;;;7.30;5.07;;;;;;;13.46;60.69;97221.25;6258866;23;20040;-80
2022/06/14 03:31:54;;;;;;;8.18;4.75;;;;;;;13.44;60.75;97223.22;6257439;23;20047;-78
2022/06/14 03:34:28;;;;;;;8.32;4.80;;;;;;;13.44;61.02;97222.44;6257594;22;20020;-77
2022/06/14 03:36:56;;;;;;;9.88;5.15;;;;;;;13.44;60.76;97232.91;6258911;23;20416;-78
2022/06/14 03:39:31;;;;;;;7.63;5.10;;;;;;;13.41;61.10;97225.44;6258109;22;20089;-78
2022/06/14 03:42:03;;;;;;;7.20;4.85;;;;;;;13.38;61.15;97232.66;6255906;23;20021;-78
2022/06/14 03:44:33;;;;;;;8.82;5.55;;;;;;;13.40;61.31;97224.59;6257189;22;20086;-78
2022/06/14 03:47:21;;;;;;;7.10;4.57;;;;;;;13.42;61.22;97224.41;6255675;22;20020;-79
2022/06/14 03:49:53;;;;;;;7.30;4.80;;;;;;;13.41;61.47;97226.25;6261178;23;20028;-77
2022/06/14 03:52:46;;;;;;;5.68;4.22;;;;;;;13.43;61.11;97224.25;6260977;23;20043;-82
2022/06/14 03:55:34;;;;;;;8.93;4.97;;;;;;;13.43;61.37;97229.47;6258362;22;20325;-78
2022/06/14 03:58:19;;;;;;;6.80;5.03;;;;;;;13.43;61.27;97231.31;6264295;22;20024;-78
2022/06/14 04:00:50;;;;;;;7.28;5.07;;;;;;;13.39;60.96;97228.22;6265780;23;20023;-80
2022/06/14 04:03:41;;;;;;;7.97;5.63;;;;;;;13.38;61.18;97231.81;6264416;22;20035;-82
2022/06/14 04:06:19;;;;;;;7.43;4.85;;;;;;;13.36;60.90;97231.22;6263548;23;20074;-77
2022/06/14 04:08:55;;;;;;;9.35;5.57;;;;;;;13.35;61.11;97226.97;6262690;23;20031;-78
2022/06/14 04:11:37;;;;;;;6.30;5.25;;;;;;;13.32;61.46;97229.97;6261055;23;20072;-80
2022/06/14 04:14:20;;;;;;;11.13;5.75;;;;;;;13.25;61.49;97222.00;6261182;22;20044;-77
2022/06/14 04:16:55;;;;;;;11.50;5.50;;;;;;;13.23;61.49;97220.53;6254538;23;20063;-78
2022/06/14 04:19:36;;;;;;;13.45;5.38;;;;;;;13.22;61.66;97224.16;6256029;23;20017;-78
2022/06/14 04:22:16;;;;;;;7.57;5.30;;;;;;;13.19;61.63;97226.16;6254324;23;20028;-76
2022/06/14 04:24:52;;;;;;;9.38;6.00;;;;;;;13.18;61.84;97221.06;6254584;22;20403;-77
2022/06/14 04:27:34;;;;;;;6.22;4.82;;;;;;;13.16;61.99;97223.91;6253629;23;20043;-77
2022/06/14 04:30:10;;;;;;;8.02;5.72;;;;;;;13.16;61.72;97223.91;6255862;23;20020;-78
2022/06/14 04:32:45;;;;;;;6.57;5.40;;;;;;;13.20;61.74;97235.63;6258167;22;20031;-83
2022/06/14 04:35:19;;;;;;;11.95;5.22;;;;;;;13.22;61.63;97226.78;6254282;23;20047;-77
2022/06/14 04:37:51;;;;;;;13.73;5.20;;;;;;;13.24;61.65;97220.34;6251092;23;20384;-77
2022/06/14 04:40:24;;;;;;;10.27;5.53;;;;;;;13.30;61.99;97226.72;6253379;23;20051;-79
2022/06/14 04:42:57;;;;;;;6.07;5.10;;;;;;;13.34;61.87;97230.59;6255352;22;20082;-78
2022/06/14 04:45:33;;;;;;;6.88;4.55;;;;;;;13.36;61.97;97215.50;6254714;23;20024;-80
2022/06/14 04:48:07;;;;;;;9.00;5.00;;;;;;;13.37;62.22;97220.53;6254389;23;20047;-78
2022/06/14 04:50:39;;;;;;;9.82;5.40;;;;;;;13.41;62.17;97221.00;6251874;23;20027;-78
2022/06/14 04:53:13;;;;;;;9.57;5.78;;;;;;;13.45;62.27;97217.00;6256603;22;20020;-78
2022/06/14 04:55:46;;;;;;;10.50;6.18;;;;;;;13.50;62.20;97213.84;6257442;23;20559;-77
2022/06/14 04:58:19;;;;;;;6.63;5.18;;;;;;;13.56;62.03;97219.16;6255062;23;20032;-80
2022/06/14 05:00:52;;;;;;;11.23;6.00;;;;;;;13.63;61.95;97218.41;6255254;23;20038;-79
2022/06/14 05:03:25;;;;;;;7.82;4.90;;;;;;;13.67;61.51;97219.66;6254564;22;20020;-77
2022/06/14 05:05:58;;;;;;;6.18;4.90;;;;;;;13.72;61.46;97215.47;6260393;23;20050;-78
2022/06/14 05:08:33;;;;;;;7.68;4.70;;;;;;;13.77;61.47;97210.50;6261159;22;20024;-78
2022/06/14 05:11:08;;;;;;;8.23;5.15;;;;;;;13.87;61.90;97218.03;6254922;23;20020;-78
2022/06/14 05:13:44;;;;;;;9.70;5.25;;;;;;;14.00;64.63;97220.78;6260342;22;20031;-77
2022/06/14 05:16:17;;;;;;;7.55;5.43;;;;;;;14.15;65.09;97217.28;6259420;23;20044;-79
2022/06/14 05:18:52;;;;;;;12.02;5.57;;;;;;;14.24;64.12;97221.41;6253317;23;20514;-78
2022/06/14 05:21:26;;;;;;;9.52;5.93;;;;;;;14.36;66.05;97213.81;6253325;23;20020;-78
2022/06/14 05:23:56;;;;;;;10.32;6.38;;;;;;;14.46;64.38;97221.38;6251422;22;20042;-77
2022/06/14 05:26:36;;;;;;;8.93;6.25;;;;;;;14.53;63.78;97225.66;6252663;23;20020;-78
2022/06/14 05:29:14;;;;;;;11.98;6.03;;;;;;;14.59;64.22;97224.13;6248359;23;20028;-76
2022/06/14 05:31:52;;;;;;;6.82;5.50;;;;;;;14.66;64.72;97221.53;6249092;23;20476;-77
2022/06/14 05:34:32;;;;;;;6.90;6.05;;;;;;;14.65;61.78;97227.78;6250745;22;20020;-77
2022/06/14 05:37:06;;;;;;;9.30;5.90;;;;;;;14.64;61.73;97226.97;6254765;23;20024;-79
2022/06/14 05:39:40;;;;;;;8.77;5.65;;;;;;;14.71;64.18;97227.81;6255763;23;20088;-78
2022/06/14 05:42:14;;;;;;;12.18;6.18;;;;;;;14.80;63.64;97226.69;6250191;23;20024;-77
2022/06/14 05:44:45;;;;;;;8.27;6.07;;;;;;;14.88;63.83;97228.31;6252587;22;20024;-78
2022/06/14 05:47:17;;;;;;;6.47;5.60;;;;;;;14.96;64.14;97232.63;6252069;23;20064;-77
2022/06/14 05:49:47;;;;;;;8.23;5.30;;;;;;;15.01;63.18;97232.84;6252271;23;20333;-77
2022/06/14 05:52:21;;;;;;;10.77;6.53;;;;;;;15.06;61.94;97232.25;6251651;23;20091;-77
2022/06/14 05:54:56;;;;;;;11.75;6.70;;;;;;;15.05;61.33;97231.47;6252097;22;20039;-78
2022/06/14 05:57:29;;;;;;;11.07;6.75;;;;;;;15.05;61.60;97234.09;6252369;23;20024;-78
2022/06/14 06:00:02;;;;;;;15.25;7.07;;;;;;;15.08;61.51;97230.25;6252093;23;20020;-77
2022/06/14 06:02:35;;;;;;;11.52;6.47;;;;;;;15.14;61.43;97227.66;6252210;23;20023;-80
2022/06/14 06:05:11;;;;;;;9.38;6.68;;;;;;;15.21;61.54;97231.13;6252497;23;20022;-78
2022/06/14 06:07:44;;;;;;;8.40;5.53;;;;;;;15.31;62.48;97232.59;6251518;23;20035;-78
2022/06/14 06:10:17;;;;;;;8.73;6.25;;;;;;;15.36;61.22;97225.72;6252177;23;20338;-79
2022/06/14 06:12:52;;;;;;;9.45;6.47;;;;;;;15.44;62.76;97224.75;6252857;22;20042;-77
2022/06/14 06:15:26;;;;;;;9.50;6.18;;;;;;;15.54;64.58;97219.91;6258156;23;20048;-77
2022/06/14 06:17:59;;;;;;;6.43;5.78;;;;;;;15.63;63.05;97220.53;6253959;23;20027;-80
2022/06/14 06:20:33;;;;;;;11.00;6.88;;;;;;;15.67;61.28;97211.25;6253941;23;20031;-81
2022/06/14 06:23:10;;;;;;;11.18;7.13;;;;;;;15.74;61.63;97211.31;6258139;22;20020;-79
2022/06/14 06:25:42;;;;;;;13.05;6.72;;;;;;;15.79;61.21;97216.78;6259017;23;20024;-79
2022/06/14 06:28:14;;;;;;;8.75;6.35;;;;;;;15.86;62.88;97220.25;6259329;23;20062;-77
2022/06/14 06:30:47;;;;;;;13.18;7.22;;;;;;;15.93;61.44;97215.78;6259937;23;20078;-77
2022/06/14 06:33:19;;;;;;;7.30;6.07;;;;;;;16.00;60.87;97216.59;6254510;22;20020;-77
2022/06/14 06:36:02;;;;;;;9.10;6.33;;;;;;;16.10;62.61;97220.69;6254745;23;20024;-76
2022/06/14 06:38:43;;;;;;;11.35;7.32;;;;;;;16.18;60.14;97226.56;6255469;23;20076;-78
2022/06/14 06:44:01;;;;;;;9.88;6.47;;;;;;;16.34;58.74;97227.16;6254334;22;20463;-78
2022/06/14 06:46:38;;;;;;;14.25;7.07;;;;;;;16.41;57.78;97223.50;6255700;23;20075;-81
2022/06/14 06:49:11;;;;;;;10.45;5.93;;;;;;;16.50;57.43;97228.56;6256486;23;20079;-75
2022/06/14 06:51:45;;;;;;;8.02;5.15;;;;;;;16.58;57.10;97218.63;6256430;23;20058;-78
2022/06/14 06:54:20;;;;;;;8.23;5.40;;;;;;;16.67;56.40;97217.41;6259843;22;20463;-79
2022/06/14 06:56:51;;;;;;;10.30;5.22;;;;;;;16.78;56.57;97218.59;6255841;23;20051;-78
2022/06/14 06:59:26;;;;;;;9.98;5.38;;;;;;;16.88;56.10;97213.75;6256488;23;20471;-77
2022/06/14 07:01:58;;;;;;;8.60;5.65;;;;;;;17.00;56.10;97221.03;6253620;23;20461;-77
2022/06/14 07:07:21;;;;;;;12.05;5.47;;;;;;;17.21;55.53;97212.84;6254844;23;20100;-78
2022/06/14 07:09:54;;;;;;;9.60;5.07;;;;;;;17.32;55.35;97213.19;6255841;23;20099;-79
2022/06/14 07:12:27;;;;;;;9.07;4.40;;;;;;;17.43;55.62;97216.00;6255827;23;20052;-78
2022/06/14 07:14:59;;;;;;;10.48;5.18;;;;;;;17.53;54.68;97214.72;6255129;22;20452;-78
2022/06/14 07:17:35;;;;;;;8.20;4.22;;;;;;;17.63;54.22;97207.97;6255910;23;20031;-78
2022/06/14 07:20:23;;;;;;;8.40;4.68;;;;;;;17.73;52.99;97204.84;6256023;23;20027;-77
2022/06/14 07:22:57;;;;;;;7.88;4.53;;;;;;;17.84;52.84;97209.50;6260480;22;20055;-79
2022/06/14 07:25:27;;;;;;;7.22;5.13;;;;;;;17.95;52.07;97212.47;6261195;23;20437;-80
2022/06/14 07:28:02;;;;;;;6.97;4.25;;;;;;;18.06;52.19;97203.88;6260555;23;20024;-77
2022/06/14 07:30:36;;;;;;;6.03;5.05;;;;;;;18.15;51.00;97202.59;6255886;23;20055;-77
2022/06/14 07:33:04;;;;;;;10.02;4.68;;;;;;;18.24;51.43;97200.50;6256609;22;20520;-76
2022/06/14 07:35:44;;;;;;;10.10;4.25;;;;;;;18.35;51.72;97207.72;6256224;23;20499;-76
2022/06/14 07:38:19;;;;;;;7.53;4.65;;;;;;;18.46;50.98;97204.38;6256798;23;20401;-77
2022/06/14 07:40:57;;;;;;;8.18;4.57;;;;;;;18.56;51.17;97209.13;6256809;23;20026;-79
2022/06/14 07:43:29;;;;;;;8.13;3.97;;;;;;;18.64;50.28;97208.88;6256485;22;20052;-77
2022/06/14 07:46:06;;;;;;;10.35;4.00;;;;;;;18.74;50.02;97206.53;6257686;23;20044;-76
2022/06/14 07:48:39;;;;;;;7.32;3.88;;;;;;;18.86;49.99;97209.28;6256477;23;20016;-78
2022/06/14 07:51:16;;;;;;;11.20;4.00;;;;;;;18.98;49.03;97211.19;6255501;23;20035;-79
2022/06/14 07:53:49;;;;;;;5.75;3.22;;;;;;;19.08;49.37;97211.50;6255423;22;20024;-78
2022/06/14 07:56:21;;;;;;;5.68;3.28;;;;;;;19.20;48.37;97206.25;6255211;23;20401;-77
2022/06/14 07:58:55;;;;;;;5.35;3.20;;;;;;;19.30;48.03;97204.72;6254875;23;20099;-80
2022/06/14 08:01:28;;;;;;;4.82;3.20;;;;;;;19.42;48.26;97196.06;6254151;23;20452;-77
2022/06/14 08:04:02;;;;;;;6.80;3.72;;;;;;;19.55;48.13;97194.03;6254686;22;20027;-79
2022/06/14 08:06:37;;;;;;;7.05;4.35;;;;;;;19.66;47.17;97203.03;6254486;23;20024;-78
2022/06/14 08:09:15;;;;;;;7.13;4.07;;;;;;;19.75;47.32;97196.44;6255182;22;20043;-78
2022/06/14 08:11:47;;;;;;;9.40;3.75;;;;;;;19.86;47.73;97196.69;6254876;23;20017;-77
2022/06/14 08:14:20;;;;;;;8.68;3.72;;;;;;;19.99;47.56;97196.50;6253769;22;20063;-78
2022/06/14 08:16:52;;;;;;;6.65;3.65;;;;;;;20.09;47.02;97202.03;6254513;23;20024;-78
2022/06/14 08:19:24;;;;;;;8.60;3.92;;;;;;;20.21;47.05;97199.41;6253546;23;20472;-78
2022/06/14 08:22:00;;;;;;;9.27;3.70;;;;;;;20.34;46.74;97206.34;6254038;23;20039;-76
2022/06/14 08:24:32;;;;;;;6.57;3.45;;;;;;;20.44;44.40;97206.56;6256960;22;20024;-79
2022/06/14 08:27:05;;;;;;;5.25;3.22;;;;;;;20.52;44.96;97208.88;6253528;23;20255;-79
2022/06/14 08:29:37;;;;;;;6.03;3.10;;;;;;;20.64;44.86;97208.91;6253343;23;20020;-77
2022/06/14 08:32:10;;;;;;;6.28;3.03;;;;;;;20.75;44.40;97196.66;6253028;23;20040;-77
2022/06/14 08:34:44;;;;;;;6.20;3.50;;;;;;;20.87;44.62;97194.03;6254380;22;20020;-77
2022/06/14 08:37:19;;;;;;;7.07;3.35;;;;;;;20.96;44.92;97196.06;6260545;23;20043;-77
2022/06/14 08:39:50;;;;;;;6.60;3.50;;;;;;;21.06;43.53;97197.34;6260767;23;20024;-77
2022/06/14 08:42:27;;;;;;;6.45;3.22;;;;;;;21.15;43.51;97203.91;6254645;23;20047;-77
2022/06/14 08:44:59;;;;;;;6.65;3.67;;;;;;;21.25;43.67;97196.13;6243947;22;20420;-78
2022/06/14 08:47:45;;;;;;;5.40;3.47;;;;;;;21.39;43.31;97209.94;6246258;23;20020;-77
2022/06/14 08:50:38;;;;;;;7.80;3.45;;;;;;;21.52;42.67;97203.59;6245843;23;20062;-78
2022/06/14 08:53:57;;;;;;;8.52;3.25;;;;;;;21.58;41.32;97207.91;6246303;22;20020;-78
2022/06/14 08:56:47;;;;;;;6.35;3.50;;;;;;;21.64;40.74;97206.97;6245901;23;20036;-78
2022/06/14 08:59:32;;;;;;;4.13;2.60;;;;;;;21.75;40.75;97214.09;6221142;23;20544;-78
2022/06/14 09:02:21;;;;;;;9.00;2.83;;;;;;;21.83;40.63;97210.25;6246470;23;20506;-78
2022/06/14 09:05:18;;;;;;;5.70;3.28;;;;;;;21.95;40.38;97207.50;6257693;22;20024;-78
2022/06/14 09:08:16;;;;;;;7.68;3.45;;;;;;;22.06;39.95;97208.50;6269153;23;20031;-78
2022/06/14 09:11:00;;;;;;;5.90;2.85;;;;;;;22.15;40.04;97199.91;6247553;23;20401;-78
2022/06/14 09:13:56;;;;;;;4.28;2.90;;;;;;;22.24;39.16;97203.00;6247113;22;20444;-78
2022/06/14 09:16:45;;;;;;;6.13;2.78;;;;;;;22.32;39.93;97196.47;6246250;22;20027;-78
2022/06/14 09:19:26;;;;;;;7.55;3.08;;;;;;;22.40;39.61;97199.53;6248430;23;20070;-78
2022/06/14 09:22:06;;;;;;;6.75;3.17;;;;;;;22.50;40.27;97198.06;6260069;23;20020;-78
2022/06/14 09:24:57;;;;;;;6.32;3.95;;;;;;;22.60;39.46;97188.38;6261534;22;20073;-78
2022/06/14 09:27:54;;;;;;;5.35;3.28;;;;;;;22.72;39.79;97190.94;6247504;23;20082;-78
2022/06/14 09:30:43;;;;;;;6.70;3.20;;;;;;;22.84;39.59;97182.84;6246439;23;20024;-78
2022/06/14 09:33:46;;;;;;;5.10;2.60;;;;;;;22.92;39.40;97182.44;6246193;22;20089;-78
2022/06/14 09:36:46;;;;;;;5.07;3.00;;;;;;;22.99;38.53;97180.38;6231137;22;20048;-78
2022/06/14 09:39:50;;;;;;;6.68;3.92;;;;;;;23.03;38.03;97178.09;6245956;23;20024;-78
2022/06/14 09:42:47;;;;;;;7.78;2.85;;;;;;;23.08;38.00;97172.81;6246171;23;20016;-78
2022/06/14 09:45:49;;;;;;;6.72;3.70;;;;;;;23.12;37.86;97173.13;6245659;23;20020;-78
2022/06/14 09:48:47;;;;;;;4.88;2.70;;;;;;;23.13;36.82;97180.84;6246486;23;20052;-78
2022/06/14 09:52:06;;;;;;;4.75;2.90;;;;;;;23.14;36.87;97176.34;6215751;22;20016;-78
2022/06/14 09:55:20;;;;;;;6.72;3.17;;;;;;;23.11;37.18;97168.84;6246454;22;20012;-78
2022/06/14 09:58:12;;;;;;;6.88;3.28;;;;;;;23.14;38.41;97171.03;6247157;23;20042;-78
2022/06/14 10:00:49;;;;;;;5.57;3.13;;;;;;;23.19;37.21;97163.09;6247293;23;20016;-78
2022/06/14 10:03:43;;;;;;;4.50;2.88;;;;;;;23.22;36.96;97162.59;6246752;22;20048;-78
2022/06/14 10:06:37;;;;;;;4.82;2.45;;;;;;;23.24;37.41;97161.31;6247157;23;20020;-78
2022/06/14 10:09:25;;;;;;;4.30;2.70;;;;;;;23.27;36.89;97154.69;6247514;23;20024;-78
2022/06/14 10:12:11;;;;;;;5.25;3.10;;;;;;;23.30;38.08;97156.81;6247362;23;20047;-78
2022/06/14 10:14:51;;;;;;;3.25;2.25;;;;;;;23.36;36.44;97147.06;6246722;22;20479;-78
2022/06/14 10:17:41;;;;;;;8.10;2.55;;;;;;;23.42;37.08;97152.19;6246718;22;20020;-78
2022/06/14 10:20:41;;;;;;;6.40;2.50;;;;;;;23.46;36.11;97152.47;6246864;23;20522;-78
2022/06/14 10:23:32;;;;;;;7.63;2.90;;;;;;;23.52;36.22;97156.78;6243621;22;20024;-78
2022/06/14 10:29:23;;;;;;;5.65;3.15;;;;;;;23.62;36.04;97137.47;6246654;23;20494;-79
2022/06/14 10:32:18;;;;;;;6.28;2.78;;;;;;;23.69;36.06;97142.56;6246919;23;20079;-78
2022/06/14 10:34:59;;;;;;;3.33;2.50;;;;;;;23.74;35.89;97138.09;6248169;22;20042;-78
2022/06/14 10:37:44;;;;;;;4.10;2.72;;;;;;;23.78;35.18;97143.75;6253069;23;20016;-78
2022/06/14 10:40:41;;;;;;;6.03;2.33;;;;;;;23.81;36.63;97140.56;6269226;23;20031;-78
2022/06/14 10:43:16;;;;;;;5.18;2.95;;;;;;;23.85;37.07;97139.84;6219897;22;20027;-78
2022/06/14 10:46:09;;;;;;;6.15;3.90;;;;;;;23.83;35.58;97133.97;6257107;22;20099;-78
2022/06/14 10:49:05;;;;;;;5.95;3.22;;;;;;;23.83;37.09;97135.78;6249431;23;20051;-78
2022/06/14 10:51:51;;;;;;;6.25;3.45;;;;;;;23.82;36.24;97137.66;6249607;23;20020;-78
2022/06/14 10:54:27;;;;;;;6.78;3.03;;;;;;;23.80;36.54;97126.44;6249269;22;20050;-78
2022/06/14 10:57:15;;;;;;;6.15;3.22;;;;;;;23.80;36.58;97126.44;6248671;23;20020;-78
2022/06/14 11:00:02;;;;;;;5.35;2.78;;;;;;;23.85;38.10;97128.34;6248218;23;20027;-78
2022/06/14 11:02:54;;;;;;;5.05;3.10;;;;;;;23.90;36.69;97133.75;6249875;23;20395;-78
2022/06/14 11:05:32;;;;;;;3.70;2.55;;;;;;;23.94;37.41;97123.34;6248974;23;20095;-78
2022/06/14 11:08:28;;;;;;;6.55;2.83;;;;;;;24.00;36.63;97120.47;6248878;23;20020;-78
2022/06/14 11:11:23;;;;;;;4.72;2.83;;;;;;;24.04;35.74;97120.78;6245778;22;20062;-78
2022/06/14 11:14:05;;;;;;;5.35;2.92;;;;;;;24.03;36.79;97117.31;6237243;22;20050;-78
2022/06/14 11:16:48;;;;;;;4.00;2.90;;;;;;;24.06;36.43;97116.00;6248989;23;20093;-78
2022/06/14 11:19:34;;;;;;;4.57;2.90;;;;;;;24.09;36.20;97118.16;6248354;23;20467;-78
2022/06/14 11:22:20;;;;;;;4.22;2.60;;;;;;;24.10;35.53;97109.09;6256508;23;20024;-78
2022/06/14 11:25:00;;;;;;;4.47;3.30;;;;;;;24.16;36.13;97107.25;6270628;22;20079;-78
2022/06/14 11:27:39;;;;;;;6.07;2.88;;;;;;;24.21;36.36;97117.97;6267289;23;20051;-78
2022/06/14 11:30:20;;;;;;;6.90;2.47;;;;;;;24.23;36.67;97098.00;6250529;22;20071;-78
2022/06/14 11:32:57;;;;;;;5.50;2.65;;;;;;;24.25;36.81;97098.53;6249208;23;20023;-78
2022/06/14 11:35:48;;;;;;;5.55;3.05;;;;;;;24.27;37.13;97099.09;6248652;23;20027;-78
2022/06/14 11:38:36;;;;;;;13.40;3.33;;;;;;;24.31;36.30;97090.56;6249619;22;20090;-78
2022/06/14 11:41:13;;;;;;;8.50;3.00;;;;;;;24.33;36.02;97085.78;6248784;22;20016;-78
2022/06/14 11:43:53;;;;;;;5.60;2.97;;;;;;;24.33;35.87;97083.13;6248923;22;20020;-78
2022/06/14 11:46:35;;;;;;;2.90;2.60;;;;;;;24.35;35.66;97079.13;6248963;23;20020;-78
2022/06/14 11:49:16;;;;;;;4.55;2.30;;;;;;;24.39;35.99;97079.44;6249369;23;20020;-79
2022/06/14 11:51:57;;;;;;;3.95;2.75;;;;;;;24.43;35.89;97085.84;6249017;23;20013;-78
2022/06/14 11:54:39;;;;;;;5.95;2.75;;;;;;;24.47;36.17;97087.75;6249131;22;20023;-78
2022/06/14 11:57:16;;;;;;;4.25;2.75;;;;;;;24.51;35.54;97068.56;6247494;23;20034;-78
2022/06/14 12:00:13;;;;;;;4.15;2.90;;;;;;;24.54;36.42;97066.19;6249099;23;20094;-78
2022/06/14 12:03:23;;;;;;;4.63;2.60;;;;;;;24.56;35.23;97080.06;6248487;22;20020;-78
2022/06/14 12:06:02;;;;;;;6.18;2.75;;;;;;;24.53;34.61;97072.56;6265031;22;20129;-78
2022/06/14 12:09:05;;;;;;;4.88;2.47;;;;;;;24.54;35.20;97076.88;6267827;23;20027;-78
2022/06/14 12:11:41;;;;;;;4.65;2.60;;;;;;;24.54;35.02;97076.88;6248928;23;20523;-79
2022/06/14 12:14:50;;;;;;;5.47;2.88;;;;;;;24.55;34.81;97075.78;6249088;22;20012;-78
2022/06/14 12:17:26;;;;;;;7.30;3.20;;;;;;;24.53;34.91;97069.13;6248717;23;20077;-78
2022/06/14 12:20:05;;;;;;;3.25;2.10;;;;;;;24.53;35.43;97075.25;6249259;22;20416;-79
2022/06/14 12:22:44;;;;;;;3.00;2.63;;;;;;;24.58;35.79;97072.63;6249156;23;20024;-79
2022/06/14 12:28:16;;;;;;;6.68;3.08;;;;;;;24.65;34.39;97083.84;6249264;23;20460;-78
2022/06/14 12:30:50;;;;;;;5.40;2.97;;;;;;;24.66;35.59;97076.63;6248917;23;20019;-78
2022/06/14 12:33:22;;;;;;;;;;;;;;;24.68;35.55;97066.50;6249227;22;20020;-79
2022/06/14 12:36:09;;;;;;;5.82;2.30;;;;;;;24.66;34.83;97069.47;6249661;23;20267;-78
2022/06/14 12:38:41;;;;;;;4.20;2.70;;;;;;;24.72;36.13;97064.13;6249127;23;20016;-78
2022/06/14 12:41:18;;;;;;;4.32;2.50;;;;;;;24.73;34.70;97057.72;6248776;23;20020;-78
2022/06/14 12:44:01;;;;;;;3.88;2.50;;;;;;;24.75;34.45;97056.41;6249080;22;20027;-78